Time;durP1;ratioP1;P1;durP2;ratioP2;P2;SDS_P1;SDS_P2;PMS_P1;PMS_P2;Temp;Humidity;BMP_temperature;BMP_pressure;BME280_temperature;BME280_humidity;BME280_pressure;Samples;Min_cycle;Max_cycle;Signal;HPM_P1;HPM_P2
2021/10/05 00:00:20;;;;;;;0.20;0.20;;;;;;;26.86;35.72;96430.19;5027489;28;20025;-34
2021/10/05 00:02:45;;;;;;;0.20;0.20;;;;;;;26.85;35.69;96431.13;5026790;28;20056;-34
2021/10/05 00:05:11;;;;;;;0.20;0.20;;;;;;;26.85;35.61;96431.13;5028276;28;20033;-35
2021/10/05 00:07:36;;;;;;;0.10;0.10;;;;;;;26.84;35.68;96426.81;5026013;28;20567;-36
2021/10/05 00:10:03;;;;;;;0.25;0.25;;;;;;;26.86;35.70;96430.19;5027838;28;20071;-34
2021/10/05 00:12:28;;;;;;;0.10;0.10;;;;;;;26.84;35.64;96416.31;5028983;28;20041;-34
2021/10/05 00:14:53;;;;;;;0.15;0.10;;;;;;;26.86;35.65;96409.16;5029571;28;20082;-37
2021/10/05 00:17:19;;;;;;;0.10;0.10;;;;;;;26.85;35.67;96412.72;5027065;28;20841;-34
2021/10/05 00:19:45;;;;;;;0.10;0.10;;;;;;;26.86;35.69;96409.16;5026644;28;20029;-35
2021/10/05 00:22:10;;;;;;;0.22;0.20;;;;;;;26.84;35.60;96400.53;5027743;28;20025;-32
2021/10/05 00:24:36;;;;;;;0.30;0.20;;;;;;;26.85;35.66;96402.22;5028254;28;20663;-36
2021/10/05 00:27:01;;;;;;;0.20;0.20;;;;;;;26.85;35.51;96386.44;5026631;28;20030;-35
2021/10/05 00:29:27;;;;;;;0.10;0.10;;;;;;;26.86;35.55;96374.97;5029558;28;20083;-32
2021/10/05 00:31:52;;;;;;;0.10;0.10;;;;;;;26.85;35.59;96375.09;5025153;28;20031;-39
2021/10/05 00:34:17;;;;;;;0.10;0.10;;;;;;;26.84;35.61;96369.00;5025438;28;20644;-31
2021/10/05 00:36:43;;;;;;;0.10;0.10;;;;;;;26.84;35.66;96366.34;5026705;28;20760;-33
2021/10/05 00:39:08;;;;;;;0.28;0.20;;;;;;;26.84;35.64;96363.72;5030903;28;20033;-34
2021/10/05 00:41:34;;;;;;;0.20;0.20;;;;;;;26.85;35.66;96365.41;5032863;28;20275;-35
2021/10/05 00:44:02;;;;;;;0.30;0.20;;;;;;;26.84;35.64;96369.00;5029929;28;20092;-35
2021/10/05 00:46:28;;;;;;;0.20;0.20;;;;;;;26.84;35.60;96358.47;5026174;28;20036;-36
2021/10/05 00:48:54;;;;;;;0.17;0.17;;;;;;;26.85;35.72;96348.81;5026011;28;20432;-32
2021/10/05 00:51:21;;;;;;;0.20;0.20;;;;;;;26.85;35.51;96333.03;5026730;28;20055;-31
2021/10/05 00:53:46;;;;;;;0.30;0.30;;;;;;;26.84;35.71;96332.19;5001787;28;20025;-34
2021/10/05 00:56:11;;;;;;;0.20;0.20;;;;;;;26.83;35.53;96330.50;5028921;28;20039;-34
2021/10/05 00:58:37;;;;;;;0.35;0.20;;;;;;;26.84;35.62;96326.06;5028155;28;20041;-28
2021/10/05 01:01:03;;;;;;;14.25;0.40;;;;;;;26.83;35.64;96320.00;5027075;28;20395;-31
2021/10/05 01:03:28;;;;;;;0.28;0.28;;;;;;;26.83;35.68;96312.09;5026054;28;20065;-34
2021/10/05 01:05:54;;;;;;;0.10;0.10;;;;;;;26.84;35.66;96307.66;5025448;28;20017;-33
2021/10/05 01:08:22;;;;;;;0.20;0.20;;;;;;;26.84;35.68;96303.25;5025972;28;20480;-28
2021/10/05 01:10:48;;;;;;;0.45;0.20;;;;;;;26.83;35.60;96296.31;5029227;28;20136;-35
2021/10/05 01:13:13;;;;;;;0.20;0.20;;;;;;;26.83;35.58;96287.59;5015619;28;20546;-34
2021/10/05 01:15:39;;;;;;;0.30;0.30;;;;;;;26.82;35.60;96297.28;5031049;28;20038;-36
2021/10/05 01:18:04;;;;;;;0.10;0.10;;;;;;;26.82;35.65;96297.28;5031255;28;20041;-34
2021/10/05 01:20:29;;;;;;;0.30;0.30;;;;;;;26.83;35.45;96303.34;5029071;28;20107;-35
2021/10/05 01:22:55;;;;;;;0.40;0.40;;;;;;;26.82;35.62;96286.75;5017185;28;20083;-37
2021/10/05 01:25:20;;;;;;;0.20;0.20;;;;;;;26.82;35.56;96297.28;5031006;28;20021;-29
2021/10/05 01:27:53;;;;;;;0.20;0.20;;;;;;;26.82;35.60;96296.41;5029953;28;20029;-34
2021/10/05 01:30:19;;;;;;;0.20;0.20;;;;;;;26.82;35.67;96292.03;5032631;28;20031;-33
2021/10/05 01:32:45;;;;;;;0.10;0.10;;;;;;;26.82;35.62;96292.03;5031703;28;20031;-32
2021/10/05 01:35:10;;;;;;;0.20;0.20;;;;;;;26.82;35.74;96286.75;5031765;28;20462;-31
2021/10/05 01:37:36;;;;;;;0.20;0.20;;;;;;;26.82;35.53;96294.66;5029397;28;20418;-36
2021/10/05 01:40:04;;;;;;;0.20;0.20;;;;;;;26.81;35.62;96285.06;5028062;28;20030;-34
2021/10/05 01:42:29;;;;;;;0.20;0.20;;;;;;;26.81;35.63;96289.50;5016997;28;20021;-33
2021/10/05 01:44:55;;;;;;;0.13;0.13;;;;;;;26.81;35.70;96284.22;5032211;28;20025;-34
2021/10/05 01:47:21;;;;;;;0.10;0.10;;;;;;;26.80;35.62;96288.63;5029980;28;20033;-33
2021/10/05 01:49:46;;;;;;;0.13;0.13;;;;;;;26.80;35.59;96283.38;5026314;28;20044;-31
2021/10/05 01:52:11;;;;;;;0.08;0.08;;;;;;;26.79;35.63;96291.34;5028683;28;20569;-31
2021/10/05 01:54:37;;;;;;;0.38;0.30;;;;;;;26.75;35.54;96288.09;5029160;28;20071;-35
2021/10/05 01:57:03;;;;;;;0.20;0.20;;;;;;;26.80;35.58;96298.28;5031283;28;20029;-36
2021/10/05 01:59:28;;;;;;;0.50;0.47;;;;;;;26.80;35.65;96307.03;5028554;28;20140;-31
2021/10/05 02:01:54;;;;;;;0.20;0.20;;;;;;;26.79;35.75;96300.09;5028396;28;20959;-32
2021/10/05 02:04:19;;;;;;;0.10;0.10;;;;;;;26.79;35.61;96294.84;5015124;28;20495;-32
2021/10/05 02:06:45;;;;;;;0.10;0.10;;;;;;;26.80;35.64;96291.25;5026974;28;20033;-32
2021/10/05 02:09:12;;;;;;;0.20;0.20;;;;;;;26.78;35.67;96274.75;5031104;28;20551;-35
2021/10/05 02:11:37;;;;;;;0.20;0.20;;;;;;;26.80;35.58;96277.25;5027376;28;20060;-33
2021/10/05 02:14:03;;;;;;;0.10;0.10;;;;;;;26.80;35.54;96279.88;5027828;28;20507;-35
2021/10/05 02:16:29;;;;;;;0.10;0.10;;;;;;;26.79;35.70;96265.94;5012487;28;20043;-31
2021/10/05 02:18:55;;;;;;;0.10;0.10;;;;;;;26.78;35.55;96264.25;5028782;28;20021;-33
2021/10/05 02:21:20;;;;;;;0.43;0.20;;;;;;;26.78;35.55;96248.47;5009766;28;20476;-34
2021/10/05 02:26:31;;;;;;;0.10;0.10;;;;;;;26.78;35.58;96253.72;5029449;28;20054;-31
2021/10/05 02:28:56;;;;;;;0.35;0.22;;;;;;;26.78;35.71;96256.34;5029763;28;20128;-35
2021/10/05 02:31:21;;;;;;;0.10;0.10;;;;;;;26.78;35.63;96247.63;5028368;28;20376;-32
2021/10/05 02:33:47;;;;;;;0.10;0.10;;;;;;;26.77;35.67;96252.03;5029358;28;20985;-33
2021/10/05 02:36:12;;;;;;;0.10;0.10;;;;;;;26.77;35.66;96238.88;5027594;28;20083;-36
2021/10/05 02:38:38;;;;;;;0.20;0.20;;;;;;;26.78;35.66;96243.22;5026474;28;20254;-34
2021/10/05 02:41:03;;;;;;;0.20;0.20;;;;;;;26.77;35.67;96238.06;5027582;28;20048;-28
2021/10/05 02:43:29;;;;;;;0.30;0.30;;;;;;;26.77;35.54;96241.50;5014665;28;20033;-32
2021/10/05 02:45:54;;;;;;;0.17;0.17;;;;;;;26.78;35.68;96237.97;5011282;28;20056;-35
2021/10/05 02:48:19;;;;;;;0.10;0.10;;;;;;;26.77;35.58;96244.13;5028601;28;20025;-31
2021/10/05 02:50:45;;;;;;;0.00;0.00;;;;;;;26.76;35.58;96237.19;5027892;28;20060;-36
2021/10/05 02:53:10;;;;;;;0.15;0.13;;;;;;;26.77;35.65;96235.44;5031759;28;20025;-38
2021/10/05 02:55:35;;;;;;;0.10;0.10;;;;;;;26.77;35.62;96230.16;5028939;28;20574;-32
2021/10/05 02:58:01;;;;;;;0.10;0.10;;;;;;;26.78;35.66;96231.84;5028751;28;20052;-35
2021/10/05 03:00:26;;;;;;;0.10;0.10;;;;;;;26.77;35.58;96232.81;5027303;28;20104;-31
2021/10/05 03:02:52;;;;;;;0.15;0.15;;;;;;;26.77;35.64;96231.00;5027465;28;20061;-31
2021/10/05 03:05:17;;;;;;;0.10;0.10;;;;;;;26.76;35.69;96234.56;5030938;28;20083;-31
2021/10/05 03:07:43;;;;;;;0.20;0.20;;;;;;;26.77;35.64;96231.00;5010507;28;21071;-31
2021/10/05 03:10:09;;;;;;;0.10;0.10;;;;;;;26.75;35.68;96225.00;5028398;28;20040;-35
2021/10/05 03:12:34;;;;;;;0.10;0.10;;;;;;;26.76;35.64;96218.81;5012626;28;20036;-33
2021/10/05 03:15:00;;;;;;;0.17;0.17;;;;;;;26.77;35.63;96225.72;5027393;28;20030;-31
2021/10/05 03:17:25;;;;;;;0.10;0.10;;;;;;;26.77;35.66;96217.03;5012903;28;20024;-36
2021/10/05 03:19:50;;;;;;;0.17;0.17;;;;;;;26.77;35.73;96217.03;5031321;28;20029;-34
2021/10/05 03:22:16;;;;;;;0.20;0.20;;;;;;;26.76;35.63;96208.28;5027267;28;20029;-35
2021/10/05 03:24:41;;;;;;;0.20;0.20;;;;;;;26.76;35.55;96197.78;5029523;28;20033;-30
2021/10/05 03:27:06;;;;;;;0.10;0.10;;;;;;;26.74;35.68;96187.34;5024174;28;20022;-32
2021/10/05 03:29:32;;;;;;;0.20;0.20;;;;;;;26.74;35.64;96190.00;5028359;28;20737;-36
2021/10/05 03:31:58;;;;;;;0.20;0.20;;;;;;;26.75;35.62;96185.59;5027030;28;20028;-36
2021/10/05 03:34:23;;;;;;;0.32;0.20;;;;;;;26.74;35.73;96187.34;5025186;28;20055;-37
2021/10/05 03:36:48;;;;;;;0.00;0.00;;;;;;;26.75;35.66;96196.09;5027076;28;20059;-29
2021/10/05 03:39:14;;;;;;;0.43;0.10;;;;;;;26.74;35.56;96207.56;5036300;28;20032;-34
2021/10/05 03:41:39;;;;;;;0.10;0.10;;;;;;;26.75;35.71;96201.34;5029511;28;20021;-38
2021/10/05 03:44:05;;;;;;;0.10;0.10;;;;;;;26.73;35.71;96195.34;5029794;28;20071;-29
2021/10/05 03:46:30;;;;;;;1.15;0.25;;;;;;;26.74;35.74;96189.16;5026417;28;20029;-30
2021/10/05 03:48:55;;;;;;;0.10;0.10;;;;;;;26.73;35.68;96190.09;5031877;28;20082;-38
2021/10/05 03:51:21;;;;;;;0.00;0.00;;;;;;;26.74;35.67;96189.16;5011026;28;20028;-34
2021/10/05 03:53:46;;;;;;;0.10;0.10;;;;;;;26.74;35.70;96197.88;5031430;28;20013;-38
2021/10/05 03:56:11;;;;;;;0.10;0.10;;;;;;;26.74;35.48;96210.19;5034719;28;20762;-36
2021/10/05 03:58:37;;;;;;;0.10;0.10;;;;;;;26.73;35.56;96211.97;5027605;28;20029;-32
2021/10/05 04:01:04;;;;;;;0.10;0.10;;;;;;;26.72;35.63;96207.66;5027547;28;20419;-29
2021/10/05 04:03:30;;;;;;;0.13;0.13;;;;;;;26.74;35.61;96220.69;5011617;28;20391;-35
2021/10/05 04:05:56;;;;;;;0.20;0.20;;;;;;;26.74;35.74;96211.00;5030989;28;20094;-34
2021/10/05 04:08:21;;;;;;;0.40;0.28;;;;;;;26.73;35.57;96214.59;5011848;28;20029;-29
2021/10/05 04:10:46;;;;;;;0.10;0.10;;;;;;;26.74;35.60;96220.69;5010121;28;20026;-34
2021/10/05 04:13:12;;;;;;;0.13;0.10;;;;;;;26.73;35.67;96219.00;5027843;28;20032;-36
2021/10/05 04:15:37;;;;;;;0.22;0.20;;;;;;;26.74;35.59;96204.94;5025996;28;20029;-34
2021/10/05 04:18:03;;;;;;;0.20;0.20;;;;;;;26.73;35.57;96211.97;5013736;28;20029;-36
2021/10/05 04:20:28;;;;;;;0.30;0.30;;;;;;;26.73;35.66;96213.75;5030362;28;20052;-30
2021/10/05 04:22:54;;;;;;;0.52;0.20;;;;;;;26.73;35.78;96208.47;5029918;28;20024;-35
2021/10/05 04:25:19;;;;;;;0.30;0.30;;;;;;;26.73;35.76;96205.84;5031077;28;20036;-32
2021/10/05 04:27:45;;;;;;;0.17;0.17;;;;;;;26.70;35.51;96198.19;5026646;28;20318;-32
2021/10/05 04:30:11;;;;;;;0.10;0.10;;;;;;;26.73;35.60;96195.34;5012044;28;21803;-36
2021/10/05 04:32:36;;;;;;;0.10;0.10;;;;;;;26.73;35.80;96192.72;5029737;28;20343;-33
2021/10/05 04:35:01;;;;;;;0.13;0.13;;;;;;;26.73;35.75;96195.34;5011008;28;20407;-33
2021/10/05 04:37:27;;;;;;;0.20;0.20;;;;;;;26.73;35.66;96197.97;5026627;28;20029;-35
2021/10/05 04:39:52;;;;;;;0.20;0.20;;;;;;;26.72;35.50;96188.41;5032045;28;20030;-39
2021/10/05 04:42:18;;;;;;;0.20;0.17;;;;;;;26.72;35.60;96175.25;5029005;28;20041;-33
2021/10/05 04:44:43;;;;;;;0.20;0.20;;;;;;;26.72;35.66;96180.53;5013053;28;20027;-34
2021/10/05 04:47:09;;;;;;;0.10;0.10;;;;;;;26.72;35.56;96185.78;5019934;28;20062;-32
2021/10/05 04:49:34;;;;;;;0.10;0.10;;;;;;;26.72;35.68;96185.78;5034712;28;20750;-32
2021/10/05 04:51:59;;;;;;;0.38;0.30;;;;;;;26.71;35.71;96178.84;5030997;28;20060;-33
2021/10/05 04:54:25;;;;;;;0.20;0.20;;;;;;;26.72;35.72;96180.53;5031457;28;20052;-36
2021/10/05 04:56:51;;;;;;;0.47;0.30;;;;;;;26.71;35.67;96173.59;5031189;28;20087;-35
2021/10/05 04:59:17;;;;;;;0.10;0.10;;;;;;;26.71;35.59;96163.06;5033356;28;20607;-37
2021/10/05 05:01:42;;;;;;;0.10;0.10;;;;;;;26.71;35.74;96173.59;5013786;28;20021;-36
2021/10/05 05:04:09;;;;;;;0.10;0.10;;;;;;;26.69;35.69;96160.53;5030984;28;20032;-35
2021/10/05 05:06:34;;;;;;;0.10;0.10;;;;;;;26.70;35.73;96164.03;5033150;28;20029;-34
2021/10/05 05:09:00;;;;;;;0.70;0.20;;;;;;;26.71;35.65;96152.56;5013653;28;20027;-37
2021/10/05 05:11:25;;;;;;;0.30;0.20;;;;;;;26.70;35.61;96149.09;5032658;28;20518;-32
2021/10/05 05:13:50;;;;;;;0.10;0.10;;;;;;;26.71;35.77;96144.69;5011644;28;20036;-31
2021/10/05 05:16:16;;;;;;;0.10;0.10;;;;;;;26.71;35.59;96142.91;5032834;28;20033;-32
2021/10/05 05:18:41;;;;;;;0.10;0.10;;;;;;;26.70;35.60;96148.25;5015775;28;20029;-32
2021/10/05 05:21:07;;;;;;;0.10;0.10;;;;;;;26.70;35.62;96154.34;5028856;28;20517;-29
2021/10/05 05:23:32;;;;;;;0.15;0.15;;;;;;;26.69;35.62;96150.03;5017002;28;20035;-30
2021/10/05 05:25:58;;;;;;;0.10;0.10;;;;;;;26.69;35.48;96144.78;5031736;28;20597;-33
2021/10/05 05:28:23;;;;;;;0.25;0.10;;;;;;;26.69;35.62;96150.03;4997808;28;20029;-31
2021/10/05 05:30:49;;;;;;;0.20;0.20;;;;;;;26.70;35.64;96145.63;5032009;28;20068;-34
2021/10/05 05:33:14;;;;;;;0.20;0.20;;;;;;;26.69;35.68;96138.69;5035736;28;20026;-33
2021/10/05 05:35:40;;;;;;;0.20;0.20;;;;;;;26.70;35.71;96148.25;5028137;28;20029;-35
2021/10/05 05:38:05;;;;;;;0.20;0.20;;;;;;;26.68;35.64;96145.72;5031365;28;20033;-35
2021/10/05 05:40:30;;;;;;;0.20;0.20;;;;;;;26.68;35.68;96147.50;5032495;28;20033;-26
2021/10/05 05:42:56;;;;;;;0.13;0.13;;;;;;;26.68;35.64;96143.09;5031602;28;20036;-35
2021/10/05 05:45:21;;;;;;;0.25;0.25;;;;;;;26.69;35.65;96143.94;5028449;28;20522;-38
2021/10/05 05:47:47;;;;;;;0.30;0.30;;;;;;;26.68;35.62;96139.63;5029163;28;20710;-35
2021/10/05 05:50:12;;;;;;;0.20;0.20;;;;;;;26.68;35.76;96142.25;5029781;28;21196;-36
2021/10/05 05:52:37;;;;;;;0.20;0.20;;;;;;;26.67;35.69;96140.56;5014473;28;20079;-34
2021/10/05 05:55:03;;;;;;;0.10;0.10;;;;;;;26.68;35.64;96152.75;5016098;28;20369;-36
2021/10/05 05:57:29;;;;;;;0.20;0.10;;;;;;;26.68;35.72;96147.50;5028236;28;20032;-36
2021/10/05 05:59:54;;;;;;;0.20;0.20;;;;;;;26.67;35.61;96135.31;5032303;28;20024;-31
2021/10/05 06:02:20;;;;;;;0.13;0.13;;;;;;;26.68;35.63;96132.59;5030011;28;20852;-36
2021/10/05 06:04:45;;;;;;;0.20;0.20;;;;;;;26.68;35.58;96131.72;5031416;28;20032;-36
2021/10/05 06:07:11;;;;;;;0.30;0.22;;;;;;;26.67;35.56;96127.44;5027028;28;20037;-34
2021/10/05 06:09:37;;;;;;;0.20;0.20;;;;;;;26.68;35.67;96123.84;5031071;28;20107;-32
2021/10/05 06:12:05;;;;;;;0.15;0.15;;;;;;;26.67;35.65;96130.91;5033874;28;20107;-31
2021/10/05 06:14:30;;;;;;;0.30;0.25;;;;;;;26.68;35.71;96131.72;5030102;28;20077;-33
2021/10/05 06:16:57;;;;;;;0.40;0.20;;;;;;;26.67;35.53;96132.69;5029712;28;20037;-39
2021/10/05 06:19:23;;;;;;;0.20;0.20;;;;;;;26.67;35.63;96125.66;5015122;28;20036;-35
2021/10/05 06:21:48;;;;;;;0.10;0.10;;;;;;;26.67;35.62;96130.06;5030808;28;20032;-29
2021/10/05 06:24:14;;;;;;;0.17;0.17;;;;;;;26.68;35.68;96131.72;5029328;28;20029;-35
2021/10/05 06:26:39;;;;;;;0.10;0.10;;;;;;;26.66;35.72;96129.19;5028107;28;20146;-35
2021/10/05 06:29:05;;;;;;;0.15;0.15;;;;;;;26.67;35.64;96130.91;5028596;28;20029;-34
2021/10/05 06:31:54;;;;;;;0.17;0.17;;;;;;;26.67;35.64;96130.91;5029942;28;20040;-32
2021/10/05 06:34:20;;;;;;;0.30;0.20;;;;;;;26.66;35.55;96123.13;5029847;28;20032;-35
2021/10/05 06:36:45;;;;;;;0.20;0.20;;;;;;;26.66;35.69;96123.13;5014884;28;20660;-36
2021/10/05 06:39:11;;;;;;;0.20;0.20;;;;;;;26.66;35.75;96120.50;5031532;28;20281;-35
2021/10/05 06:41:36;;;;;;;0.10;0.10;;;;;;;26.67;35.59;96119.53;5009931;28;20026;-33
2021/10/05 06:44:02;;;;;;;0.35;0.20;;;;;;;26.66;35.69;96117.88;5029047;28;20060;-34
2021/10/05 06:46:27;;;;;;;0.20;0.20;;;;;;;26.66;35.61;96116.06;5031295;28;20111;-33
2021/10/05 06:48:53;;;;;;;0.10;0.10;;;;;;;26.64;35.85;96110.09;5031393;28;20055;-33
2021/10/05 06:51:18;;;;;;;0.65;0.28;;;;;;;26.65;35.64;96108.31;5014387;28;20614;-31
2021/10/05 06:53:43;;;;;;;0.20;0.20;;;;;;;26.64;35.75;96110.09;5028646;28;20480;-33
2021/10/05 06:56:09;;;;;;;0.10;0.10;;;;;;;26.64;35.71;96103.97;5030943;28;20777;-38
2021/10/05 06:58:34;;;;;;;0.28;0.20;;;;;;;26.64;35.76;96101.34;5013089;28;20025;-32
2021/10/05 07:01:00;;;;;;;0.15;0.15;;;;;;;26.64;35.78;96103.97;5028488;28;20482;-31
2021/10/05 07:03:25;;;;;;;0.10;0.10;;;;;;;26.64;35.77;96104.81;5031669;28;20056;-37
2021/10/05 07:05:51;;;;;;;0.80;0.30;;;;;;;26.64;35.60;96110.09;5027698;28;20033;-36
2021/10/05 07:08:17;;;;;;;0.20;0.20;;;;;;;26.64;35.77;96103.97;5029123;28;20031;-34
2021/10/05 07:10:42;;;;;;;0.25;0.15;;;;;;;26.63;35.76;96097.91;5025936;28;20029;-33
2021/10/05 07:13:08;;;;;;;0.63;0.32;;;;;;;26.66;35.76;96100.28;5030276;28;20043;-30
2021/10/05 07:15:34;;;;;;;0.15;0.15;;;;;;;26.64;35.80;96101.34;5029648;28;20028;-32
2021/10/05 07:17:59;;;;;;;0.20;0.20;;;;;;;26.64;35.76;96103.97;5025788;28;20021;-36
2021/10/05 07:20:26;;;;;;;0.30;0.30;;;;;;;26.66;35.64;96104.72;5027825;28;20038;-34
2021/10/05 07:22:51;;;;;;;0.10;0.10;;;;;;;26.65;35.76;96097.81;5043426;28;20027;-37
2021/10/05 07:25:17;;;;;;;0.25;0.10;;;;;;;26.64;35.69;96096.94;5030272;28;20030;-34
2021/10/05 07:27:52;;;;;;;0.35;0.20;;;;;;;26.64;35.43;96099.56;5026104;28;20036;-34
2021/10/05 07:30:23;;;;;;;0.60;0.20;;;;;;;26.66;35.74;96107.34;5030971;28;20117;-35
2021/10/05 07:32:50;;;;;;;0.20;0.20;;;;;;;26.64;35.73;96107.47;5027383;28;20048;-34
2021/10/05 07:35:16;;;;;;;0.10;0.10;;;;;;;26.66;35.76;96102.09;5029132;28;20553;-37
2021/10/05 07:37:41;;;;;;;0.20;0.20;;;;;;;26.64;35.73;96093.47;5026290;28;20131;-38
2021/10/05 07:40:07;;;;;;;0.10;0.10;;;;;;;26.64;35.63;96099.56;5028406;28;20029;-32
2021/10/05 07:42:33;;;;;;;0.20;0.20;;;;;;;26.64;35.82;96101.34;5002808;28;20674;-28
2021/10/05 07:44:58;;;;;;;0.10;0.10;;;;;;;26.65;35.66;96100.44;5027725;28;20750;-35
2021/10/05 07:47:23;;;;;;;0.17;0.17;;;;;;;26.64;35.69;96099.56;5030889;28;20036;-34
2021/10/05 07:49:51;;;;;;;0.20;0.20;;;;;;;26.64;35.74;96101.34;5030174;28;20024;-37
2021/10/05 07:52:18;;;;;;;0.20;0.20;;;;;;;26.64;35.84;96093.47;5027337;28;20029;-36
2021/10/05 07:54:43;;;;;;;0.30;0.20;;;;;;;26.64;35.80;96098.72;5018121;28;20029;-34
2021/10/05 07:57:09;;;;;;;0.10;0.10;;;;;;;26.62;35.81;96090.97;5012742;28;20024;-35
2021/10/05 07:59:34;;;;;;;0.10;0.10;;;;;;;26.64;35.79;96089.06;5028538;28;20036;-33
2021/10/05 08:02:00;;;;;;;0.03;0.03;;;;;;;26.65;35.61;96095.16;5028899;28;20036;-35
2021/10/05 08:04:25;;;;;;;0.10;0.10;;;;;;;26.65;35.69;96089.91;5029649;28;20032;-36
2021/10/05 08:06:51;;;;;;;0.10;0.10;;;;;;;26.65;35.84;96097.81;5024151;28;20033;-35
2021/10/05 08:09:17;;;;;;;0.10;0.10;;;;;;;26.64;35.84;96104.81;5026335;28;20064;-30
2021/10/05 08:11:42;;;;;;;0.20;0.20;;;;;;;26.65;35.77;96095.16;4998796;28;20151;-34
2021/10/05 08:14:08;;;;;;;0.20;0.20;;;;;;;26.64;35.86;96099.56;5009413;28;20123;-29
2021/10/05 08:16:33;;;;;;;0.32;0.32;;;;;;;26.65;35.83;96097.81;5029103;28;20509;-29
2021/10/05 08:19:02;;;;;;;0.20;0.13;;;;;;;26.64;35.76;96088.22;5029042;28;20018;-29
2021/10/05 08:21:27;;;;;;;0.10;0.10;;;;;;;26.66;35.73;96091.59;5027324;28;20036;-32
2021/10/05 08:23:53;;;;;;;0.65;0.22;;;;;;;26.65;35.75;96095.16;5027705;28;20030;-33
2021/10/05 08:26:19;;;;;;;0.30;0.17;;;;;;;26.66;35.71;96095.03;5028883;28;20029;-33
2021/10/05 08:28:45;;;;;;;0.10;0.10;;;;;;;26.66;35.75;96099.47;5027294;28;20086;-31
2021/10/05 08:31:10;;;;;;;0.20;0.20;;;;;;;26.66;35.87;96102.09;5027360;28;20033;-34
2021/10/05 08:33:35;;;;;;;0.10;0.10;;;;;;;26.67;35.74;96095.88;5027190;28;20492;-36
2021/10/05 08:36:01;;;;;;;0.10;0.10;;;;;;;26.66;35.91;96102.91;5025441;28;20111;-36
2021/10/05 08:38:26;;;;;;;0.30;0.22;;;;;;;26.67;35.72;96101.16;5030109;28;20085;-34
2021/10/05 08:40:51;;;;;;;0.10;0.10;;;;;;;26.67;35.85;96098.53;5030248;28;20928;-33
2021/10/05 08:43:20;;;;;;;0.10;0.10;;;;;;;26.67;35.84;96112.50;5011625;28;20036;-38
2021/10/05 08:45:46;;;;;;;0.10;0.10;;;;;;;26.67;35.77;96109.03;5030882;28;20032;-35
2021/10/05 08:48:12;;;;;;;0.10;0.10;;;;;;;26.67;35.88;96109.88;5024338;28;20025;-35
2021/10/05 08:50:37;;;;;;;0.10;0.10;;;;;;;26.68;35.85;96110.72;5033489;28;20034;-31
2021/10/05 08:53:03;;;;;;;0.10;0.10;;;;;;;26.67;35.78;96103.78;5027213;28;20036;-33
2021/10/05 08:55:28;;;;;;;0.30;0.10;;;;;;;26.68;35.70;96100.19;5011083;28;20611;-36
2021/10/05 08:57:53;;;;;;;0.10;0.10;;;;;;;26.67;35.85;96103.78;5011434;28;20029;-35
2021/10/05 09:00:20;;;;;;;0.00;0.00;;;;;;;26.69;35.81;96107.16;5009575;28;20395;-37
2021/10/05 09:02:52;;;;;;;0.10;0.10;;;;;;;26.68;35.87;96102.81;5028074;28;20029;-35
2021/10/05 09:05:17;;;;;;;0.10;0.10;;;;;;;26.69;35.79;96107.16;5025279;28;20755;-34
2021/10/05 09:07:45;;;;;;;0.10;0.10;;;;;;;26.68;35.90;96102.81;5027222;28;20022;-36
2021/10/05 09:10:10;;;;;;;0.10;0.10;;;;;;;26.68;35.83;96101.03;5028529;28;20474;-36
2021/10/05 09:12:36;;;;;;;0.10;0.10;;;;;;;26.69;35.95;96101.91;5026689;28;20401;-30
2021/10/05 09:15:05;;;;;;;0.20;0.20;;;;;;;26.69;35.91;96099.28;5025886;28;20025;-35
2021/10/05 09:17:31;;;;;;;0.85;0.03;;;;;;;26.70;35.95;96103.56;5025883;28;20029;-34
2021/10/05 09:19:57;;;;;;;0.20;0.10;;;;;;;26.70;35.91;96098.31;5026095;28;20031;-30
2021/10/05 09:22:27;;;;;;;0.10;0.10;;;;;;;26.70;35.95;96104.41;5031098;28;20025;-31
2021/10/05 09:24:54;;;;;;;0.10;0.10;;;;;;;26.70;35.95;96106.22;5028111;28;20553;-32
2021/10/05 09:27:20;;;;;;;0.00;0.00;;;;;;;26.70;35.82;96103.56;5026870;28;20036;-36
2021/10/05 09:29:47;;;;;;;0.10;0.10;;;;;;;26.70;35.96;96098.31;5000532;28;20072;-29
2021/10/05 09:32:14;;;;;;;0.17;0.10;;;;;;;26.72;35.89;96112.19;5029377;28;20025;-34
2021/10/05 09:34:40;;;;;;;0.10;0.10;;;;;;;26.70;36.00;96098.31;5029943;28;20292;-38
2021/10/05 09:37:29;;;;;;;0.20;0.20;;;;;;;26.71;35.93;96089.47;5030910;28;20048;-31
2021/10/05 09:40:10;;;;;;;0.10;0.10;;;;;;;26.71;35.93;96079.81;5022718;28;20064;-32
2021/10/05 09:42:44;;;;;;;0.20;0.20;;;;;;;26.71;35.89;96065.84;5031022;28;20036;-34
2021/10/05 09:45:11;;;;;;;0.20;0.20;;;;;;;26.71;36.12;96042.19;5030808;28;20120;-34
2021/10/05 09:47:41;;;;;;;0.20;0.10;;;;;;;26.71;36.06;96045.66;5015514;28;20072;-31
2021/10/05 09:50:14;;;;;;;0.10;0.10;;;;;;;26.72;35.85;96044.72;5033028;28;20061;-34
2021/10/05 09:52:47;;;;;;;0.00;0.00;;;;;;;26.72;36.01;96047.34;5028482;28;20038;-35
2021/10/05 09:55:13;;;;;;;0.10;0.10;;;;;;;26.70;35.83;96040.50;5029656;28;20024;-31
2021/10/05 09:57:38;;;;;;;0.00;0.00;;;;;;;26.74;35.89;96041.97;5014381;28;20060;-35
2021/10/05 10:00:05;;;;;;;0.20;0.20;;;;;;;26.73;35.91;96046.38;5029558;28;20033;-31
2021/10/05 10:02:32;;;;;;;0.10;0.10;;;;;;;26.74;35.93;96047.22;5029624;28;20075;-35
2021/10/05 10:04:58;;;;;;;0.10;0.10;;;;;;;26.72;36.02;96039.44;5017879;28;20536;-33
2021/10/05 10:07:23;;;;;;;0.10;0.10;;;;;;;26.73;35.81;96045.53;5029487;28;20068;-32
2021/10/05 10:09:49;;;;;;;0.10;0.10;;;;;;;26.74;35.84;96052.50;5031660;28;20021;-35
2021/10/05 10:12:14;;;;;;;0.10;0.10;;;;;;;26.72;35.91;96049.97;5029140;28;20051;-34
2021/10/05 10:14:39;;;;;;;0.20;0.20;;;;;;;26.75;36.02;96048.91;5014410;28;20558;-31
2021/10/05 10:17:05;;;;;;;0.20;0.20;;;;;;;26.74;36.08;96044.59;5027312;28;20041;-28
2021/10/05 10:19:32;;;;;;;0.10;0.10;;;;;;;26.74;35.93;96048.06;5016402;28;20047;-36
2021/10/05 10:22:08;;;;;;;0.10;0.10;;;;;;;26.73;35.94;96045.53;5013651;28;20321;-30
2021/10/05 10:24:47;;;;;;;0.00;0.00;;;;;;;26.76;35.90;96049.75;5029108;28;20068;-33
2021/10/05 10:27:12;;;;;;;0.10;0.10;;;;;;;26.76;36.07;96049.75;5027204;28;20674;-34
2021/10/05 10:29:38;;;;;;;0.03;0.03;;;;;;;26.76;36.06;96050.56;5044590;28;20029;-30
2021/10/05 10:32:10;;;;;;;0.10;0.10;;;;;;;26.77;35.97;96061.94;5032266;28;20552;-32
2021/10/05 10:34:38;;;;;;;0.10;0.10;;;;;;;26.75;36.08;96054.16;5029756;28;20029;-30
2021/10/05 10:37:18;;;;;;;0.40;0.20;;;;;;;26.76;36.00;96050.56;5027967;28;20020;-32
2021/10/05 10:39:45;;;;;;;0.10;0.10;;;;;;;26.76;36.13;96049.75;5031489;28;20029;-30
2021/10/05 10:42:10;;;;;;;0.08;0.08;;;;;;;26.76;35.95;96057.66;5034371;28;20029;-30
2021/10/05 10:44:38;;;;;;;0.35;0.20;;;;;;;26.74;36.03;96047.22;5026986;28;20017;-32
2021/10/05 10:47:14;;;;;;;0.30;0.20;;;;;;;26.76;36.06;96047.13;5026521;28;20499;-34
2021/10/05 10:49:40;;;;;;;0.10;0.10;;;;;;;26.77;36.11;96057.50;5029702;28;20029;-30
2021/10/05 10:52:06;;;;;;;0.20;0.20;;;;;;;26.77;36.08;96056.69;5030233;28;20052;-33
2021/10/05 10:54:31;;;;;;;0.10;0.10;;;;;;;26.78;36.06;96059.22;5030031;28;20061;-30
2021/10/05 10:57:08;;;;;;;0.10;0.10;;;;;;;26.77;36.08;96057.50;5029645;28;20079;-36
2021/10/05 10:59:34;;;;;;;0.10;0.10;;;;;;;26.77;36.06;96057.50;5028825;28;20039;-29
2021/10/05 11:02:04;;;;;;;0.10;0.10;;;;;;;26.79;35.99;96055.63;5028579;28;20025;-31
2021/10/05 11:04:30;;;;;;;0.10;0.10;;;;;;;26.79;36.10;96054.78;5030201;28;20041;-38
2021/10/05 11:06:57;;;;;;;0.05;0.05;;;;;;;26.78;36.08;96048.72;5032075;28;20022;-35
2021/10/05 11:09:33;;;;;;;0.35;0.25;;;;;;;26.80;36.05;96051.19;5028374;28;20033;-36
2021/10/05 11:11:59;;;;;;;0.20;0.10;;;;;;;26.80;36.13;96053.81;5028173;28;20507;-38
2021/10/05 11:14:36;;;;;;;0.20;0.10;;;;;;;26.80;36.08;96052.06;5026357;28;20025;-30
2021/10/05 11:17:03;;;;;;;0.10;0.10;;;;;;;26.80;36.05;96052.06;5029481;28;20028;-35
2021/10/05 11:19:33;;;;;;;0.13;0.13;;;;;;;26.81;36.18;96042.38;5021195;28;20135;-34
2021/10/05 11:22:00;;;;;;;0.10;0.10;;;;;;;26.81;36.07;96042.38;5015383;28;20035;-33
2021/10/05 11:24:57;;;;;;;0.10;0.10;;;;;;;26.81;36.07;96045.03;5028349;28;20029;-31
2021/10/05 11:27:23;;;;;;;0.10;0.10;;;;;;;26.81;36.02;96051.09;5030029;28;20940;-34
2021/10/05 11:29:49;;;;;;;0.03;0.03;;;;;;;26.82;36.09;96049.31;5027602;28;20075;-36
2021/10/05 11:32:18;;;;;;;0.00;0.00;;;;;;;26.81;36.07;96048.47;5029978;28;20883;-30